createdAt,value
2018-06-05T00:02:17.458Z,21.10
2018-06-05T00:05:20.361Z,21.10
2018-06-05T00:08:23.280Z,21.20
2018-06-05T00:11:26.226Z,21.20
2018-06-05T00:14:30.032Z,21.20
2018-06-05T00:17:32.956Z,21.20
2018-06-05T00:20:35.907Z,21.30
2018-06-05T00:23:38.843Z,21.20
2018-06-05T00:26:41.829Z,21.20
2018-06-05T00:29:44.801Z,21.20
2018-06-05T00:32:47.789Z,21.10
2018-06-05T00:35:50.853Z,21.10
2018-06-05T00:38:53.774Z,21.10
2018-06-05T00:41:56.680Z,21.10
2018-06-05T00:44:59.707Z,21.00
2018-06-05T00:48:02.625Z,21.10
2018-06-05T00:51:22.727Z,21.10
2018-06-05T00:54:25.625Z,21.10
2018-06-05T00:57:28.558Z,21.10
2018-06-05T01:00:31.620Z,21.10
2018-06-05T01:03:34.638Z,21.00
2018-06-05T01:06:37.705Z,20.90
2018-06-05T01:09:40.652Z,20.90
2018-06-05T01:12:43.535Z,21.00
2018-06-05T01:15:46.529Z,20.90
2018-06-05T01:18:49.553Z,20.90
2018-06-05T01:21:53.196Z,20.90
2018-06-05T01:24:56.740Z,21.00
2018-06-05T01:27:59.805Z,21.00
2018-06-05T01:31:02.737Z,20.80
2018-06-05T01:34:05.649Z,20.80
2018-06-05T01:37:08.593Z,20.70
2018-06-05T01:40:13.446Z,20.80
2018-06-05T01:43:16.616Z,20.80
2018-06-05T01:46:22.034Z,20.90
2018-06-05T01:49:29.623Z,21.00
2018-06-05T01:52:34.585Z,20.90
2018-06-05T01:55:37.515Z,20.90
2018-06-05T01:58:40.805Z,20.90
2018-06-05T02:01:43.965Z,20.90
2018-06-05T02:04:46.911Z,20.90
2018-06-05T02:07:49.812Z,20.90
2018-06-05T02:10:52.836Z,20.80
2018-06-05T02:13:55.749Z,20.80
2018-06-05T02:20:01.548Z,20.70
2018-06-05T02:23:04.501Z,20.80
2018-06-05T02:26:07.415Z,20.80
2018-06-05T02:29:10.330Z,20.70
2018-06-05T02:32:13.256Z,20.70
2018-06-05T02:35:16.177Z,20.70
2018-06-05T02:38:19.272Z,20.70
2018-06-05T02:41:22.170Z,20.70
2018-06-05T02:44:25.072Z,20.70
2018-06-05T02:47:28.992Z,20.70
2018-06-05T02:50:36.022Z,20.60
2018-06-05T02:53:43.221Z,20.70
2018-06-05T02:56:50.309Z,20.60
2018-06-05T02:59:53.744Z,20.70
2018-06-05T03:02:58.258Z,20.60
2018-06-05T03:06:02.901Z,20.60
2018-06-05T03:09:08.244Z,20.70
2018-06-05T03:12:11.555Z,20.70
2018-06-05T03:15:28.253Z,20.70
2018-06-05T03:18:34.353Z,20.60
2018-06-05T03:21:38.185Z,20.60
2018-06-05T03:24:41.614Z,20.70
2018-06-05T03:27:51.690Z,20.60
2018-06-05T03:30:55.656Z,20.70
2018-06-05T03:33:59.605Z,20.70
2018-06-05T03:40:07.970Z,20.60
2018-06-05T03:43:12.482Z,20.50
2018-06-05T03:46:16.730Z,20.50
2018-06-05T03:49:19.687Z,20.50
2018-06-05T03:52:22.577Z,20.50
2018-06-05T03:55:25.521Z,20.60
2018-06-05T03:58:28.396Z,20.60
2018-06-05T04:01:31.429Z,20.50
2018-06-05T04:04:35.148Z,20.40
2018-06-05T04:07:38.080Z,20.40
2018-06-05T04:10:41.012Z,20.50
2018-06-05T04:13:44.235Z,20.50
2018-06-05T04:16:49.921Z,20.50
2018-06-05T04:19:53.104Z,20.40
2018-06-05T04:22:56.080Z,20.50
2018-06-05T04:25:58.993Z,20.40
2018-06-05T04:29:02.008Z,20.40
2018-06-05T04:32:05.008Z,20.40
2018-06-05T04:35:07.887Z,20.40
2018-06-05T04:38:11.073Z,20.50
2018-06-05T04:41:14.896Z,20.40
2018-06-05T04:44:17.821Z,20.40
2018-06-05T04:47:20.719Z,20.40
2018-06-05T04:50:23.999Z,20.40
2018-06-05T04:53:26.945Z,20.30
2018-06-05T04:56:30.021Z,20.30
2018-06-05T04:59:32.962Z,20.30
2018-06-05T05:02:35.937Z,20.20
2018-06-05T05:05:38.955Z,20.20
2018-06-05T05:08:42.068Z,20.20
2018-06-05T05:11:45.546Z,20.30
2018-06-05T05:14:48.465Z,20.30
2018-06-05T05:17:51.408Z,20.30
2018-06-05T05:20:54.498Z,20.20
2018-06-05T05:23:57.439Z,20.30
2018-06-05T05:27:00.344Z,20.30
2018-06-05T05:30:03.802Z,20.30
2018-06-05T05:33:06.808Z,20.30
2018-06-05T05:36:09.894Z,20.30
2018-06-05T05:39:12.796Z,20.20
2018-06-05T05:42:16.387Z,20.10
2018-06-05T05:45:19.617Z,20.10
2018-06-05T05:48:22.635Z,20.20
2018-06-05T05:51:26.471Z,20.20
2018-06-05T05:54:29.449Z,20.10
2018-06-05T05:57:32.427Z,20.10
2018-06-05T06:00:35.361Z,20.00
2018-06-05T06:03:38.280Z,20.00
2018-06-05T06:06:41.221Z,20.00
2018-06-05T06:09:44.882Z,20.00
2018-06-05T06:12:47.831Z,20.00
2018-06-05T06:15:50.817Z,20.10
2018-06-05T06:18:53.701Z,20.00
2018-06-05T06:21:56.644Z,20.00
2018-06-05T06:24:59.639Z,20.00
2018-06-05T06:31:05.541Z,20.00
2018-06-05T06:34:08.449Z,20.00
2018-06-05T06:37:11.354Z,20.00
2018-06-05T06:40:14.277Z,20.10
2018-06-05T06:43:17.192Z,20.00
2018-06-05T06:46:20.153Z,20.00
2018-06-05T06:49:23.116Z,20.00
2018-06-05T06:52:26.002Z,20.00
2018-06-05T06:55:28.973Z,20.00
2018-06-05T07:01:34.930Z,20.10
2018-06-05T07:04:37.833Z,20.20
2018-06-05T07:07:40.759Z,20.20
2018-06-05T07:10:43.650Z,20.20
2018-06-05T07:13:46.537Z,20.20
2018-06-05T07:16:49.469Z,20.20
2018-06-05T07:19:52.480Z,20.20
2018-06-05T07:22:55.399Z,20.20
2018-06-05T07:25:58.332Z,20.20
2018-06-05T07:29:01.249Z,20.10
2018-06-05T07:32:04.215Z,20.00
2018-06-05T07:35:07.163Z,20.00
2018-06-05T07:38:10.096Z,20.00
2018-06-05T07:41:12.992Z,20.10
2018-06-05T07:44:15.932Z,20.10
2018-06-05T07:47:18.858Z,20.10
2018-06-05T07:50:21.750Z,20.10
2018-06-05T07:53:24.668Z,20.10
2018-06-05T07:56:27.598Z,20.10
2018-06-05T07:59:30.514Z,20.10
2018-06-05T08:05:36.301Z,20.10
2018-06-05T08:08:39.237Z,20.10
2018-06-05T08:11:42.224Z,20.10
2018-06-05T08:14:45.144Z,20.10
2018-06-05T08:17:48.053Z,20.00
2018-06-05T08:20:50.954Z,20.10
2018-06-05T08:23:53.908Z,20.10
2018-06-05T08:26:56.824Z,20.20
2018-06-05T08:29:59.718Z,20.20
2018-06-05T08:33:02.677Z,20.20
2018-06-05T08:36:05.604Z,20.20
2018-06-05T08:39:08.602Z,20.30
2018-06-05T08:42:11.501Z,20.20
2018-06-05T08:45:14.484Z,20.20
2018-06-05T08:48:17.377Z,20.20
2018-06-05T08:51:20.318Z,20.30
2018-06-05T08:54:23.245Z,20.30
2018-06-05T08:57:26.177Z,20.20
2018-06-05T09:00:29.097Z,20.20
2018-06-05T09:03:31.994Z,20.20
2018-06-05T09:06:34.917Z,20.20
2018-06-05T09:09:37.843Z,20.20
2018-06-05T09:12:40.766Z,20.20
2018-06-05T09:15:43.676Z,20.30
2018-06-05T09:18:46.576Z,20.20
2018-06-05T09:21:50.369Z,20.20
2018-06-05T09:24:53.301Z,20.10
2018-06-05T09:27:56.237Z,20.20
2018-06-05T09:30:59.167Z,20.30
2018-06-05T09:34:02.110Z,20.30
2018-06-05T09:37:05.021Z,20.20
2018-06-05T09:40:08.002Z,20.20
2018-06-05T09:43:10.945Z,20.30
2018-06-05T09:46:13.842Z,20.30
2018-06-05T09:49:16.745Z,20.20
2018-06-05T09:52:19.661Z,20.30
2018-06-05T09:55:22.589Z,20.30
2018-06-05T09:58:25.698Z,20.20
2018-06-05T10:01:28.415Z,20.30
2018-06-05T10:04:31.372Z,20.20
2018-06-05T10:07:34.301Z,20.30
2018-06-05T10:10:37.201Z,20.20
2018-06-05T10:13:40.140Z,20.10
2018-06-05T10:16:43.054Z,20.20
2018-06-05T10:19:45.960Z,20.30
2018-06-05T10:22:48.872Z,20.20
2018-06-05T10:25:51.802Z,20.30
2018-06-05T10:28:54.682Z,20.30
2018-06-05T10:31:57.615Z,20.30
2018-06-05T10:35:00.514Z,20.20
2018-06-05T10:38:03.713Z,20.30
2018-06-05T10:41:06.666Z,20.30
2018-06-05T10:44:09.604Z,20.30
2018-06-05T10:47:12.508Z,20.20
2018-06-05T10:50:15.440Z,20.20
2018-06-05T10:53:18.387Z,20.30
2018-06-05T10:56:21.346Z,20.40
2018-06-05T10:59:24.875Z,20.40
2018-06-05T11:02:27.807Z,20.50
2018-06-05T11:05:30.718Z,20.40
2018-06-05T11:08:33.610Z,20.40
2018-06-05T11:11:36.529Z,20.50
2018-06-05T11:14:39.445Z,20.60
2018-06-05T11:17:42.364Z,20.50
2018-06-05T11:20:45.273Z,20.40
2018-06-05T11:23:48.236Z,20.50
2018-06-05T11:26:51.153Z,20.50
2018-06-05T11:29:54.076Z,20.50
2018-06-05T11:32:56.998Z,20.40
2018-06-05T11:35:59.924Z,20.50
2018-06-05T11:39:04.109Z,20.60
2018-06-05T11:42:07.010Z,20.70
2018-06-05T11:45:09.971Z,20.70
2018-06-05T11:48:12.902Z,20.70
2018-06-05T11:51:15.866Z,20.80
2018-06-05T11:54:18.820Z,20.80
2018-06-05T11:57:21.766Z,20.70
2018-06-05T12:00:24.712Z,20.70
2018-06-05T12:03:27.630Z,20.70
2018-06-05T12:06:30.545Z,20.50
2018-06-05T12:09:33.541Z,20.60
2018-06-05T12:12:36.469Z,20.60
2018-06-05T12:15:39.413Z,20.60
2018-06-05T12:18:42.324Z,20.70
2018-06-05T12:21:45.240Z,20.60
2018-06-05T12:24:48.131Z,20.80
2018-06-05T12:27:51.092Z,20.80
2018-06-05T12:30:54.021Z,20.70
2018-06-05T12:33:56.951Z,20.60
2018-06-05T12:36:59.969Z,20.80
2018-06-05T12:40:02.858Z,20.90
2018-06-05T12:43:05.892Z,21.00
2018-06-05T12:46:08.787Z,20.90
2018-06-05T12:49:11.740Z,20.90
2018-06-05T12:52:14.735Z,20.80
2018-06-05T12:55:17.639Z,20.80
2018-06-05T12:58:20.600Z,20.80
2018-06-05T13:01:23.516Z,20.90
2018-06-05T13:04:26.461Z,21.00
2018-06-05T13:07:30.166Z,21.00
2018-06-05T13:10:33.547Z,21.00
2018-06-05T13:13:36.829Z,21.00
2018-06-05T13:16:40.623Z,21.00
2018-06-05T13:19:43.692Z,21.20
2018-06-05T13:22:46.758Z,21.20
2018-06-05T13:25:49.613Z,21.20
2018-06-05T13:28:52.549Z,21.10
2018-06-05T13:31:55.548Z,21.00
2018-06-05T13:34:58.487Z,21.10
2018-06-05T13:38:01.468Z,21.10
2018-06-05T13:41:04.393Z,21.10
2018-06-05T13:44:07.438Z,21.20
2018-06-05T13:47:10.346Z,21.30
2018-06-05T13:50:13.261Z,21.50
2018-06-05T13:53:16.220Z,21.50
2018-06-05T13:56:19.131Z,21.60
2018-06-05T13:59:22.044Z,21.60
2018-06-05T14:02:24.979Z,21.70
2018-06-05T14:05:27.939Z,21.80
2018-06-05T14:08:30.858Z,21.80
2018-06-05T14:11:33.759Z,22.10
2018-06-05T14:14:36.717Z,22.20
2018-06-05T14:17:39.652Z,22.30
2018-06-05T14:20:42.620Z,22.40
2018-06-05T14:23:45.538Z,22.90
2018-06-05T14:26:48.478Z,23.00
2018-06-05T14:29:51.625Z,23.20
2018-06-05T14:32:54.537Z,23.40
2018-06-05T14:35:57.483Z,23.80
2018-06-05T14:39:00.500Z,23.90
2018-06-05T14:42:03.442Z,23.70
2018-06-05T14:45:06.408Z,23.60
2018-06-05T14:48:09.416Z,23.60
2018-06-05T14:51:12.325Z,23.60
2018-06-05T14:54:15.260Z,23.70
2018-06-05T14:57:18.161Z,23.80
2018-06-05T15:00:21.063Z,23.90
2018-06-05T15:03:23.974Z,24.00
2018-06-05T15:06:26.928Z,24.00
2018-06-05T15:09:29.833Z,24.10
2018-06-05T15:12:32.744Z,24.10
2018-06-05T15:15:35.669Z,24.10
2018-06-05T15:18:38.558Z,24.10
2018-06-05T15:21:41.488Z,23.90
2018-06-05T15:24:44.384Z,23.90
2018-06-05T15:27:47.344Z,24.10
2018-06-05T15:30:50.320Z,24.10
2018-06-05T15:33:53.297Z,24.10
2018-06-05T15:36:56.256Z,24.30
2018-06-05T15:39:59.153Z,24.30
2018-06-05T15:43:02.063Z,24.30
2018-06-05T15:49:08.094Z,24.10
2018-06-05T15:52:11.005Z,24.10
2018-06-05T15:55:13.944Z,24.00
2018-06-05T15:58:16.869Z,24.00
2018-06-05T16:01:19.886Z,23.70
2018-06-05T16:04:22.869Z,23.40
2018-06-05T16:07:25.804Z,23.30
2018-06-05T16:10:28.750Z,23.10
2018-06-05T16:13:31.678Z,22.90
2018-06-05T16:16:34.577Z,22.70
2018-06-05T16:19:37.492Z,22.50
2018-06-05T16:22:40.430Z,22.30
2018-06-05T16:25:43.369Z,22.30
2018-06-05T16:28:46.257Z,22.20
2018-06-05T16:31:49.276Z,22.20
2018-06-05T16:34:52.190Z,22.10
2018-06-05T16:37:55.342Z,22.20
2018-06-05T16:40:58.733Z,22.20
2018-06-05T16:44:02.055Z,22.20
2018-06-05T16:47:05.089Z,22.20
2018-06-05T16:50:08.403Z,22.20
2018-06-05T16:53:11.344Z,22.20
2018-06-05T16:56:14.259Z,22.20
2018-06-05T16:59:17.230Z,22.10
2018-06-05T17:02:21.233Z,22.10
2018-06-05T17:05:24.179Z,22.10
2018-06-05T17:08:27.402Z,22.10
2018-06-05T17:11:30.611Z,22.00
2018-06-05T17:17:36.893Z,22.00
2018-06-05T17:20:40.550Z,22.00
2018-06-05T17:23:43.918Z,22.10
2018-06-05T17:26:48.017Z,22.10
2018-06-05T17:29:51.009Z,22.10
2018-06-05T17:32:54.348Z,22.20
2018-06-05T17:35:58.158Z,22.20
2018-06-05T17:39:02.065Z,22.20
2018-06-05T17:42:05.434Z,22.10
2018-06-05T17:45:09.147Z,22.10
2018-06-05T17:48:12.710Z,22.10
2018-06-05T17:51:16.312Z,22.00
2018-06-05T17:54:19.392Z,22.00
2018-06-05T17:57:22.953Z,22.00
2018-06-05T18:00:26.339Z,21.90
2018-06-05T18:03:29.666Z,22.00
2018-06-05T18:06:33.189Z,21.90
2018-06-05T18:09:36.309Z,21.80
2018-06-05T18:12:39.235Z,21.80
2018-06-05T18:15:42.836Z,21.70
2018-06-05T18:18:47.052Z,21.70
2018-06-05T18:21:51.017Z,21.70
2018-06-05T18:24:54.516Z,21.60
2018-06-05T18:27:57.709Z,21.60
2018-06-05T18:31:01.150Z,21.50
2018-06-05T18:34:04.713Z,21.50
2018-06-05T18:37:08.611Z,21.50
2018-06-05T18:40:11.964Z,21.40
2018-06-05T18:43:15.812Z,21.40
2018-06-05T18:46:19.254Z,21.40
2018-06-05T18:49:22.828Z,21.40
2018-06-05T18:52:26.378Z,21.40
2018-06-05T18:55:29.915Z,21.30
2018-06-05T18:58:33.523Z,21.30
2018-06-05T19:01:36.711Z,21.20
2018-06-05T19:04:40.161Z,21.20
2018-06-05T19:07:43.857Z,21.20
2018-06-05T19:10:47.077Z,21.20
2018-06-05T19:13:50.347Z,21.10
2018-06-05T19:16:53.354Z,21.10
2018-06-05T19:19:56.907Z,21.10
2018-06-05T19:23:00.174Z,21.00
2018-06-05T19:26:03.420Z,21.00
2018-06-05T19:29:07.125Z,21.00
2018-06-05T19:32:10.522Z,21.00
2018-06-05T19:35:13.734Z,21.00
2018-06-05T19:38:17.110Z,20.90
2018-06-05T19:41:22.217Z,20.90
2018-06-05T19:44:26.582Z,20.80
2018-06-05T19:47:29.984Z,20.60
2018-06-05T19:50:33.061Z,20.60
2018-06-05T19:53:36.712Z,20.50
2018-06-05T19:56:40.387Z,20.50
2018-06-05T19:59:44.009Z,20.30
2018-06-05T20:02:48.116Z,20.30
2018-06-05T20:05:50.507Z,20.30
2018-06-05T20:08:53.901Z,20.20
2018-06-05T20:11:58.205Z,20.20
2018-06-05T20:15:01.475Z,20.20
2018-06-05T20:18:04.776Z,20.10
2018-06-05T20:21:08.005Z,20.00
2018-06-05T20:24:11.787Z,20.00
2018-06-05T20:27:15.555Z,19.90
2018-06-05T20:30:19.014Z,19.80
2018-06-05T20:33:22.355Z,19.70
2018-06-05T20:36:25.380Z,19.70
2018-06-05T20:39:28.707Z,19.70
2018-06-05T20:42:31.615Z,19.70
2018-06-05T20:45:34.874Z,19.60
2018-06-05T20:48:37.798Z,19.50
2018-06-05T20:51:40.757Z,19.40
2018-06-05T20:54:43.675Z,19.50
2018-06-05T20:57:46.616Z,19.50
2018-06-05T21:00:49.569Z,19.40
2018-06-05T21:03:52.515Z,19.40
2018-06-05T21:06:55.442Z,19.30
2018-06-05T21:09:58.801Z,19.20
2018-06-05T21:13:01.738Z,19.10
2018-06-05T21:16:04.704Z,19.10
2018-06-05T21:19:07.618Z,19.00
2018-06-05T21:22:11.233Z,19.10
2018-06-05T21:25:14.268Z,19.10
2018-06-05T21:28:17.195Z,19.10
2018-06-05T21:31:20.185Z,19.00
2018-06-05T21:34:23.172Z,18.90
2018-06-05T21:37:26.250Z,18.90
2018-06-05T21:40:29.228Z,18.90
2018-06-05T21:43:32.354Z,18.90
2018-06-05T21:46:35.694Z,18.80
2018-06-05T21:49:38.877Z,18.70
2018-06-05T21:52:41.818Z,18.70
2018-06-05T21:55:44.758Z,18.70
2018-06-05T21:58:47.749Z,18.70
2018-06-05T22:01:50.694Z,18.70
2018-06-05T22:04:53.638Z,18.70
2018-06-05T22:08:00.538Z,18.60
2018-06-05T22:11:03.557Z,18.60
2018-06-05T22:14:08.778Z,18.60
2018-06-05T22:17:11.677Z,18.70
2018-06-05T22:20:14.595Z,18.60
2018-06-05T22:23:17.498Z,18.60
2018-06-05T22:26:20.928Z,18.60
2018-06-05T22:29:24.871Z,18.70
2018-06-05T22:32:27.814Z,18.60
2018-06-05T22:35:30.761Z,18.60
2018-06-05T22:38:33.677Z,18.60
2018-06-05T22:41:36.600Z,18.60
2018-06-05T22:44:39.506Z,18.60
2018-06-05T22:47:42.429Z,18.40
2018-06-05T22:50:45.340Z,18.40
2018-06-05T22:53:48.263Z,18.40
2018-06-05T22:56:51.240Z,18.30
2018-06-05T22:59:54.161Z,18.40
2018-06-05T23:02:57.091Z,18.40
2018-06-05T23:05:59.989Z,18.30
2018-06-05T23:09:03.550Z,18.30
2018-06-05T23:12:06.478Z,18.30
2018-06-05T23:15:09.406Z,18.30
2018-06-05T23:18:12.300Z,18.30
2018-06-05T23:21:15.244Z,18.40
2018-06-05T23:24:18.171Z,18.40
2018-06-05T23:27:21.166Z,18.40
2018-06-05T23:30:24.048Z,18.40
2018-06-05T23:33:26.992Z,18.30
2018-06-05T23:36:29.925Z,18.30
2018-06-05T23:39:32.862Z,18.30
2018-06-05T23:42:35.801Z,18.30
2018-06-05T23:45:38.745Z,18.30
2018-06-05T23:48:41.729Z,18.30
2018-06-05T23:51:44.661Z,18.30
2018-06-05T23:54:47.575Z,18.20
2018-06-05T23:57:50.517Z,18.20
